sensor_id;sensor_type;location;lat;lon;timestamp;pressure;altitude;pressure_sealevel;temperature;humidity
56630;BME280;42502;40.732;-74.254;2023-02-22T00:01:26;99797.81;;;17.25;38.69
56630;BME280;42502;40.732;-74.254;2023-02-22T00:03:50;99793.03;;;17.26;38.87
56630;BME280;42502;40.732;-74.254;2023-02-22T00:05:56;99801.03;;;17.27;38.78
56630;BME280;42502;40.732;-74.254;2023-02-22T00:08:01;99790.59;;;17.24;39.04
56630;BME280;42502;40.732;-74.254;2023-02-22T00:10:02;99807.06;;;17.29;39.27
56630;BME280;42502;40.732;-74.254;2023-02-22T00:12:04;99815.09;;;17.31;38.85
56630;BME280;42502;40.732;-74.254;2023-02-22T00:14:04;99805.81;;;17.27;39.06
56630;BME280;42502;40.732;-74.254;2023-02-22T00:16:06;99817.91;;;17.31;39.06
56630;BME280;42502;40.732;-74.254;2023-02-22T00:18:15;99803.94;;;17.31;38.79
56630;BME280;42502;40.732;-74.254;2023-02-22T00:20:17;99811.16;;;17.32;38.83
56630;BME280;42502;40.732;-74.254;2023-02-22T00:22:18;99815.00;;;17.27;38.89
56630;BME280;42502;40.732;-74.254;2023-02-22T00:24:20;99816.28;;;17.30;38.94
56630;BME280;42502;40.732;-74.254;2023-02-22T00:26:23;99827.44;;;17.30;39.00
56630;BME280;42502;40.732;-74.254;2023-02-22T00:28:24;99831.75;;;17.27;38.54
56630;BME280;42502;40.732;-74.254;2023-02-22T00:30:27;99842.22;;;17.30;38.70
56630;BME280;42502;40.732;-74.254;2023-02-22T00:32:29;99850.94;;;17.29;38.80
56630;BME280;42502;40.732;-74.254;2023-02-22T00:34:29;99851.19;;;17.23;38.68
56630;BME280;42502;40.732;-74.254;2023-02-22T00:36:30;99852.00;;;17.24;38.84
56630;BME280;42502;40.732;-74.254;2023-02-22T00:38:31;99868.84;;;17.28;38.66
56630;BME280;42502;40.732;-74.254;2023-02-22T00:40:33;99855.13;;;17.22;38.81
56630;BME280;42502;40.732;-74.254;2023-02-22T00:42:34;99871.19;;;17.26;38.91
56630;BME280;42502;40.732;-74.254;2023-02-22T00:44:35;99878.06;;;17.28;38.88
56630;BME280;42502;40.732;-74.254;2023-02-22T00:46:36;99882.00;;;17.27;38.52
56630;BME280;42502;40.732;-74.254;2023-02-22T00:48:37;99880.00;;;17.28;38.93
56630;BME280;42502;40.732;-74.254;2023-02-22T00:50:38;99893.63;;;17.29;38.89
56630;BME280;42502;40.732;-74.254;2023-02-22T00:52:42;99888.38;;;17.28;38.75
56630;BME280;42502;40.732;-74.254;2023-02-22T00:54:43;99890.63;;;17.22;38.74
56630;BME280;42502;40.732;-74.254;2023-02-22T00:56:44;99905.13;;;17.28;38.59
56630;BME280;42502;40.732;-74.254;2023-02-22T00:58:45;99902.34;;;17.28;39.06
56630;BME280;42502;40.732;-74.254;2023-02-22T01:00:46;99927.94;;;17.30;38.69
56630;BME280;42502;40.732;-74.254;2023-02-22T01:02:47;99929.56;;;17.31;38.80
56630;BME280;42502;40.732;-74.254;2023-02-22T01:04:51;99918.19;;;17.23;38.91
56630;BME280;42502;40.732;-74.254;2023-02-22T01:06:51;99926.75;;;17.31;38.83
56630;BME280;42502;40.732;-74.254;2023-02-22T01:08:53;99916.56;;;17.22;38.75
56630;BME280;42502;40.732;-74.254;2023-02-22T01:10:54;99933.53;;;17.30;38.79
56630;BME280;42502;40.732;-74.254;2023-02-22T01:12:56;99935.16;;;17.31;38.72
56630;BME280;42502;40.732;-74.254;2023-02-22T01:14:57;99934.78;;;17.32;39.05
56630;BME280;42502;40.732;-74.254;2023-02-22T01:16:58;99936.78;;;17.32;38.87
56630;BME280;42502;40.732;-74.254;2023-02-22T01:19:01;99943.16;;;17.32;38.95
56630;BME280;42502;40.732;-74.254;2023-02-22T01:21:03;99943.16;;;17.32;38.80
56630;BME280;42502;40.732;-74.254;2023-02-22T01:23:05;99939.81;;;17.27;38.89
56630;BME280;42502;40.732;-74.254;2023-02-22T01:25:08;99945.84;;;17.29;38.96
56630;BME280;42502;40.732;-74.254;2023-02-22T01:27:10;99963.19;;;17.34;39.02
56630;BME280;42502;40.732;-74.254;2023-02-22T01:29:15;99960.97;;;17.28;38.83
56630;BME280;42502;40.732;-74.254;2023-02-22T01:31:16;99971.56;;;17.34;39.09
56630;BME280;42502;40.732;-74.254;2023-02-22T01:33:23;99984.69;;;17.34;38.95
56630;BME280;42502;40.732;-74.254;2023-02-22T01:35:28;99975.50;;;17.33;38.88
56630;BME280;42502;40.732;-74.254;2023-02-22T01:37:30;99989.94;;;17.35;39.05
56630;BME280;42502;40.732;-74.254;2023-02-22T01:39:32;99990.63;;;17.32;38.98
56630;BME280;42502;40.732;-74.254;2023-02-22T01:41:33;99990.75;;;17.36;39.07
56630;BME280;42502;40.732;-74.254;2023-02-22T01:43:34;99985.88;;;17.33;38.86
56630;BME280;42502;40.732;-74.254;2023-02-22T01:45:42;99990.75;;;17.36;39.14
56630;BME280;42502;40.732;-74.254;2023-02-22T01:47:43;99989.81;;;17.32;39.13
56630;BME280;42502;40.732;-74.254;2023-02-22T01:49:47;99996.56;;;17.31;39.08
56630;BME280;42502;40.732;-74.254;2023-02-22T01:51:50;99999.69;;;17.29;39.07
56630;BME280;42502;40.732;-74.254;2023-02-22T01:53:57;100011.94;;;17.37;39.01
56630;BME280;42502;40.732;-74.254;2023-02-22T01:56:01;100004.59;;;17.32;39.01
56630;BME280;42502;40.732;-74.254;2023-02-22T01:58:03;100022.28;;;17.36;39.22
56630;BME280;42502;40.732;-74.254;2023-02-22T02:00:12;100026.22;;;17.35;39.14
56630;BME280;42502;40.732;-74.254;2023-02-22T02:02:15;100033.44;;;17.36;38.87
56630;BME280;42502;40.732;-74.254;2023-02-22T02:04:20;100029.84;;;17.36;38.96
56630;BME280;42502;40.732;-74.254;2023-02-22T02:06:26;100031.25;;;17.30;38.96
56630;BME280;42502;40.732;-74.254;2023-02-22T02:10:42;100041.38;;;17.34;38.82
56630;BME280;42502;40.732;-74.254;2023-02-22T02:12:45;100052.75;;;17.29;38.63
56630;BME280;42502;40.732;-74.254;2023-02-22T02:14:47;100056.81;;;17.32;38.96
56630;BME280;42502;40.732;-74.254;2023-02-22T02:16:52;100064.41;;;17.31;38.92
56630;BME280;42502;40.732;-74.254;2023-02-22T02:18:55;100060.19;;;17.25;38.77
56630;BME280;42502;40.732;-74.254;2023-02-22T02:26:14;100090.56;;;17.27;38.86
56630;BME280;42502;40.732;-74.254;2023-02-22T02:33:13;100118.34;;;17.23;38.54
56630;BME280;42502;40.732;-74.254;2023-02-22T02:37:54;100103.56;;;17.22;38.53
56630;BME280;42502;40.732;-74.254;2023-02-22T02:42:20;100094.94;;;17.15;38.50
56630;BME280;42502;40.732;-74.254;2023-02-22T02:48:42;100103.19;;;17.12;38.59
56630;BME280;42502;40.732;-74.254;2023-02-22T02:50:47;100107.28;;;17.14;38.65
56630;BME280;42502;40.732;-74.254;2023-02-22T02:52:52;100117.63;;;17.14;38.73
56630;BME280;42502;40.732;-74.254;2023-02-22T02:54:56;100127.50;;;17.11;38.58
56630;BME280;42502;40.732;-74.254;2023-02-22T02:56:57;100124.91;;;17.06;38.55
56630;BME280;42502;40.732;-74.254;2023-02-22T02:58:58;100146.69;;;17.13;38.21
56630;BME280;42502;40.732;-74.254;2023-02-22T03:01:01;100135.63;;;17.04;38.62
56630;BME280;42502;40.732;-74.254;2023-02-22T03:10:25;100167.97;;;17.05;38.32
56630;BME280;42502;40.732;-74.254;2023-02-22T03:12:32;100173.19;;;17.07;38.61
56630;BME280;42502;40.732;-74.254;2023-02-22T03:17:21;100177.47;;;17.04;38.33
56630;BME280;42502;40.732;-74.254;2023-02-22T03:19:32;100189.78;;;17.03;38.53
56630;BME280;42502;40.732;-74.254;2023-02-22T03:23:44;100194.91;;;17.01;38.41
56630;BME280;42502;40.732;-74.254;2023-02-22T03:25:51;100190.00;;;16.98;38.31
56630;BME280;42502;40.732;-74.254;2023-02-22T03:27:55;100186.03;;;16.99;38.51
56630;BME280;42502;40.732;-74.254;2023-02-22T03:30:05;100202.78;;;16.99;38.32
56630;BME280;42502;40.732;-74.254;2023-02-22T03:32:15;100200.88;;;16.91;38.26
56630;BME280;42502;40.732;-74.254;2023-02-22T03:34:21;100211.50;;;16.97;38.17
56630;BME280;42502;40.732;-74.254;2023-02-22T03:36:32;100219.28;;;16.92;38.30
56630;BME280;42502;40.732;-74.254;2023-02-22T03:38:39;100222.66;;;16.97;38.00
56630;BME280;42502;40.732;-74.254;2023-02-22T03:40:44;100220.22;;;16.96;38.17
56630;BME280;42502;40.732;-74.254;2023-02-22T03:42:48;100210.94;;;16.83;38.40
56630;BME280;42502;40.732;-74.254;2023-02-22T03:44:54;100225.88;;;16.87;38.09
56630;BME280;42502;40.732;-74.254;2023-02-22T03:47:05;100244.06;;;16.93;38.16
56630;BME280;42502;40.732;-74.254;2023-02-22T03:49:37;100254.38;;;16.93;38.24
56630;BME280;42502;40.732;-74.254;2023-02-22T03:51:40;100259.16;;;16.92;38.10
56630;BME280;42502;40.732;-74.254;2023-02-22T03:53:42;100251.00;;;16.87;38.13
56630;BME280;42502;40.732;-74.254;2023-02-22T03:55:45;100259.66;;;16.85;37.90
56630;BME280;42502;40.732;-74.254;2023-02-22T03:57:54;100243.09;;;16.80;38.08
56630;BME280;42502;40.732;-74.254;2023-02-22T03:59:57;100272.97;;;16.89;38.38
56630;BME280;42502;40.732;-74.254;2023-02-22T04:01:58;100279.69;;;16.87;38.24
56630;BME280;42502;40.732;-74.254;2023-02-22T04:03:59;100285.28;;;16.87;37.98
56630;BME280;42502;40.732;-74.254;2023-02-22T04:06:00;100290.53;;;16.80;38.24
56630;BME280;42502;40.732;-74.254;2023-02-22T04:08:00;100306.94;;;16.82;38.50
56630;BME280;42502;40.732;-74.254;2023-02-22T04:10:02;100308.56;;;16.83;37.91
56630;BME280;42502;40.732;-74.254;2023-02-22T04:12:03;100317.63;;;16.80;38.10
56630;BME280;42502;40.732;-74.254;2023-02-22T04:14:04;100328.09;;;16.83;38.32
56630;BME280;42502;40.732;-74.254;2023-02-22T04:16:05;100338.47;;;16.82;38.22
56630;BME280;42502;40.732;-74.254;2023-02-22T04:18:06;100313.06;;;16.75;38.12
56630;BME280;42502;40.732;-74.254;2023-02-22T04:20:07;100309.13;;;16.76;38.20
56630;BME280;42502;40.732;-74.254;2023-02-22T04:22:11;100328.44;;;16.81;38.15
56630;BME280;42502;40.732;-74.254;2023-02-22T04:24:13;100319.28;;;16.81;38.23
56630;BME280;42502;40.732;-74.254;2023-02-22T04:26:14;100312.72;;;16.77;38.28
56630;BME280;42502;40.732;-74.254;2023-02-22T04:28:15;100310.41;;;16.79;37.87
56630;BME280;42502;40.732;-74.254;2023-02-22T04:30:17;100319.44;;;16.76;38.12
56630;BME280;42502;40.732;-74.254;2023-02-22T04:32:18;100321.75;;;16.74;38.07
56630;BME280;42502;40.732;-74.254;2023-02-22T04:34:19;100329.47;;;16.77;38.09
56630;BME280;42502;40.732;-74.254;2023-02-22T04:36:20;100341.41;;;16.77;38.13
56630;BME280;42502;40.732;-74.254;2023-02-22T04:38:24;100347.53;;;16.70;37.98
56630;BME280;42502;40.732;-74.254;2023-02-22T04:40:25;100367.19;;;16.74;38.24
56630;BME280;42502;40.732;-74.254;2023-02-22T04:42:27;100372.78;;;16.74;38.36
56630;BME280;42502;40.732;-74.254;2023-02-22T04:44:27;100373.91;;;16.73;38.02
56630;BME280;42502;40.732;-74.254;2023-02-22T04:46:28;100381.16;;;16.74;38.10
56630;BME280;42502;40.732;-74.254;2023-02-22T04:48:30;100386.59;;;16.70;38.03
56630;BME280;42502;40.732;-74.254;2023-02-22T04:50:31;100395.44;;;16.73;38.22
56630;BME280;42502;40.732;-74.254;2023-02-22T04:52:32;100401.00;;;16.73;37.95
56630;BME280;42502;40.732;-74.254;2023-02-22T04:54:33;100399.69;;;16.70;37.85
56630;BME280;42502;40.732;-74.254;2023-02-22T04:56:34;100404.13;;;16.71;38.02
56630;BME280;42502;40.732;-74.254;2023-02-22T04:58:37;100403.66;;;16.69;38.31
56630;BME280;42502;40.732;-74.254;2023-02-22T05:00:38;100402.00;;;16.68;37.77
56630;BME280;42502;40.732;-74.254;2023-02-22T05:02:39;100411.06;;;16.65;38.35
56630;BME280;42502;40.732;-74.254;2023-02-22T05:04:40;100414.81;;;16.69;38.13
56630;BME280;42502;40.732;-74.254;2023-02-22T05:06:44;100405.81;;;16.63;38.08
56630;BME280;42502;40.732;-74.254;2023-02-22T05:08:45;100402.22;;;16.63;37.94
56630;BME280;42502;40.732;-74.254;2023-02-22T05:10:45;100398.75;;;16.66;37.94
56630;BME280;42502;40.732;-74.254;2023-02-22T05:12:46;100398.75;;;16.66;38.27
56630;BME280;42502;40.732;-74.254;2023-02-22T05:14:47;100399.41;;;16.63;37.88
56630;BME280;42502;40.732;-74.254;2023-02-22T05:16:48;100397.31;;;16.60;37.97
56630;BME280;42502;40.732;-74.254;2023-02-22T05:18:49;100405.81;;;16.63;38.10
56630;BME280;42502;40.732;-74.254;2023-02-22T05:20:50;100401.72;;;16.61;38.12
56630;BME280;42502;40.732;-74.254;2023-02-22T05:22:51;100395.19;;;16.57;38.11
56630;BME280;42502;40.732;-74.254;2023-02-22T05:24:52;100405.34;;;16.61;37.94
56630;BME280;42502;40.732;-74.254;2023-02-22T05:26:53;100406.81;;;16.59;37.85
56630;BME280;42502;40.732;-74.254;2023-02-22T05:28:54;100404.69;;;16.56;37.85
56630;BME280;42502;40.732;-74.254;2023-02-22T05:30:54;100406.50;;;16.51;38.06
56630;BME280;42502;40.732;-74.254;2023-02-22T05:32:55;100403.38;;;16.53;37.99
56630;BME280;42502;40.732;-74.254;2023-02-22T05:34:56;100403.88;;;16.55;38.17
56630;BME280;42502;40.732;-74.254;2023-02-22T05:36:57;100413.53;;;16.58;37.82
56630;BME280;42502;40.732;-74.254;2023-02-22T05:38:58;100414.69;;;16.57;38.11
56630;BME280;42502;40.732;-74.254;2023-02-22T05:41:02;100392.06;;;16.49;38.04
56630;BME280;42502;40.732;-74.254;2023-02-22T05:43:03;100409.13;;;16.57;37.91
56630;BME280;42502;40.732;-74.254;2023-02-22T05:45:04;100404.22;;;16.54;37.87
56630;BME280;42502;40.732;-74.254;2023-02-22T05:47:05;100413.06;;;16.56;37.85
56630;BME280;42502;40.732;-74.254;2023-02-22T05:49:06;100406.66;;;16.55;37.84
56630;BME280;42502;40.732;-74.254;2023-02-22T05:51:07;100401.25;;;16.50;37.79
56630;BME280;42502;40.732;-74.254;2023-02-22T05:53:09;100408.81;;;16.49;37.86
56630;BME280;42502;40.732;-74.254;2023-02-22T05:55:12;100421.28;;;16.52;37.90
56630;BME280;42502;40.732;-74.254;2023-02-22T05:57:13;100410.63;;;16.45;37.96
56630;BME280;42502;40.732;-74.254;2023-02-22T05:59:14;100420.28;;;16.48;38.19
56630;BME280;42502;40.732;-74.254;2023-02-22T06:01:15;100429.97;;;16.50;37.67
56630;BME280;42502;40.732;-74.254;2023-02-22T06:03:17;100415.53;;;16.48;38.08
56630;BME280;42502;40.732;-74.254;2023-02-22T06:05:20;100422.28;;;16.47;37.83
56630;BME280;42502;40.732;-74.254;2023-02-22T06:07:21;100416.69;;;16.47;37.77
56630;BME280;42502;40.732;-74.254;2023-02-22T06:09:22;100420.28;;;16.48;37.82
56630;BME280;42502;40.732;-74.254;2023-02-22T06:11:25;100426.88;;;16.43;37.66
56630;BME280;42502;40.732;-74.254;2023-02-22T06:13:26;100436.22;;;16.47;37.94
56630;BME280;42502;40.732;-74.254;2023-02-22T06:15:28;100438.03;;;16.43;37.82
56630;BME280;42502;40.732;-74.254;2023-02-22T06:17:29;100448.50;;;16.46;37.52
56630;BME280;42502;40.732;-74.254;2023-02-22T06:19:30;100446.06;;;16.45;37.74
56630;BME280;42502;40.732;-74.254;2023-02-22T06:21:31;100456.41;;;16.44;37.92
56630;BME280;42502;40.732;-74.254;2023-02-22T06:23:31;100464.91;;;16.39;38.02
56630;BME280;42502;40.732;-74.254;2023-02-22T06:25:32;100472.94;;;16.41;38.01
56630;BME280;42502;40.732;-74.254;2023-02-22T06:27:34;100466.56;;;16.40;37.90
56630;BME280;42502;40.732;-74.254;2023-02-22T06:29:35;100462.13;;;16.39;37.84
56630;BME280;42502;40.732;-74.254;2023-02-22T06:31:36;100474.59;;;16.33;37.98
56630;BME280;42502;40.732;-74.254;2023-02-22T06:33:37;100490.81;;;16.40;38.00
56630;BME280;42502;40.732;-74.254;2023-02-22T06:35:38;100480.19;;;16.33;37.64
56630;BME280;42502;40.732;-74.254;2023-02-22T06:37:39;100482.97;;;16.33;37.72
56630;BME280;42502;40.732;-74.254;2023-02-22T06:39:39;100501.16;;;16.39;37.91
56630;BME280;42502;40.732;-74.254;2023-02-22T06:41:41;100498.88;;;16.32;37.62
56630;BME280;42502;40.732;-74.254;2023-02-22T06:43:42;100520.84;;;16.34;37.64
56630;BME280;42502;40.732;-74.254;2023-02-22T06:45:43;100518.72;;;16.31;37.73
56630;BME280;42502;40.732;-74.254;2023-02-22T06:47:44;100513.31;;;16.34;37.89
56630;BME280;42502;40.732;-74.254;2023-02-22T06:49:51;100528.06;;;16.35;37.66
56630;BME280;42502;40.732;-74.254;2023-02-22T06:51:53;100535.47;;;16.31;37.82
56630;BME280;42502;40.732;-74.254;2023-02-22T06:53:54;100529.22;;;16.34;37.79
56630;BME280;42502;40.732;-74.254;2023-02-22T06:55:55;100538.25;;;16.31;37.79
56630;BME280;42502;40.732;-74.254;2023-02-22T06:57:56;100548.22;;;16.32;37.80
56630;BME280;42502;40.732;-74.254;2023-02-22T06:59:57;100541.38;;;16.29;37.79
56630;BME280;42502;40.732;-74.254;2023-02-22T07:01:58;100561.19;;;16.28;37.66
56630;BME280;42502;40.732;-74.254;2023-02-22T07:03:59;100562.00;;;16.28;37.78
56630;BME280;42502;40.732;-74.254;2023-02-22T07:06:00;100560.53;;;16.31;37.84
56630;BME280;42502;40.732;-74.254;2023-02-22T07:08:04;100548.56;;;16.22;37.67
56630;BME280;42502;40.732;-74.254;2023-02-22T07:10:07;100569.25;;;16.29;37.74
56630;BME280;42502;40.732;-74.254;2023-02-22T07:12:08;100566.13;;;16.22;37.80
56630;BME280;42502;40.732;-74.254;2023-02-22T07:14:09;100577.94;;;16.28;37.64
56630;BME280;42502;40.732;-74.254;2023-02-22T07:16:10;100580.72;;;16.28;37.76
56630;BME280;42502;40.732;-74.254;2023-02-22T07:18:11;100576.13;;;16.23;37.62
56630;BME280;42502;40.732;-74.254;2023-02-22T07:20:13;100576.13;;;16.23;37.48
56630;BME280;42502;40.732;-74.254;2023-02-22T07:22:14;100591.34;;;16.26;37.84
56630;BME280;42502;40.732;-74.254;2023-02-22T07:24:16;100575.44;;;16.17;37.48
56630;BME280;42502;40.732;-74.254;2023-02-22T07:26:18;100593.66;;;16.24;37.52
56630;BME280;42502;40.732;-74.254;2023-02-22T07:28:19;100603.16;;;16.23;37.45
56630;BME280;42502;40.732;-74.254;2023-02-22T07:30:28;100614.63;;;16.21;37.72
56630;BME280;42502;40.732;-74.254;2023-02-22T07:32:33;100615.81;;;16.20;37.51
56630;BME280;42502;40.732;-74.254;2023-02-22T07:34:34;100607.44;;;16.20;37.47
56630;BME280;42502;40.732;-74.254;2023-02-22T07:36:35;100607.91;;;16.13;37.76
56630;BME280;42502;40.732;-74.254;2023-02-22T07:38:38;100603.81;;;16.20;37.56
56630;BME280;42502;40.732;-74.254;2023-02-22T07:40:40;100592.19;;;16.17;37.48
56630;BME280;42502;40.732;-74.254;2023-02-22T07:42:55;100590.19;;;16.18;37.45
56630;BME280;42502;40.732;-74.254;2023-02-22T07:44:56;100582.34;;;16.11;37.41
56630;BME280;42502;40.732;-74.254;2023-02-22T07:46:57;100575.75;;;16.07;37.36
56630;BME280;42502;40.732;-74.254;2023-02-22T07:48:58;100592.50;;;16.16;37.60
56630;BME280;42502;40.732;-74.254;2023-02-22T07:50:59;100599.53;;;16.13;37.61
56630;BME280;42502;40.732;-74.254;2023-02-22T07:53:07;100601.19;;;16.14;37.34
56630;BME280;42502;40.732;-74.254;2023-02-22T07:55:10;100603.16;;;16.14;37.56
56630;BME280;42502;40.732;-74.254;2023-02-22T07:57:11;100616.25;;;16.13;37.63
56630;BME280;42502;40.732;-74.254;2023-02-22T07:59:14;100631.38;;;16.12;37.41
56630;BME280;42502;40.732;-74.254;2023-02-22T08:01:15;100630.53;;;16.12;37.44
56630;BME280;42502;40.732;-74.254;2023-02-22T08:03:18;100631.38;;;16.12;37.80
56630;BME280;42502;40.732;-74.254;2023-02-22T08:05:21;100635.28;;;16.11;37.56
56630;BME280;42502;40.732;-74.254;2023-02-22T08:07:22;100622.97;;;16.04;37.71
56630;BME280;42502;40.732;-74.254;2023-02-22T08:09:23;100625.94;;;16.07;37.63
56630;BME280;42502;40.732;-74.254;2023-02-22T08:11:25;100635.63;;;16.10;37.69
56630;BME280;42502;40.732;-74.254;2023-02-22T08:13:29;100642.31;;;16.09;37.29
56630;BME280;42502;40.732;-74.254;2023-02-22T08:15:32;100653.78;;;16.07;37.55
56630;BME280;42502;40.732;-74.254;2023-02-22T08:17:36;100655.44;;;16.08;37.56
56630;BME280;42502;40.732;-74.254;2023-02-22T08:19:37;100658.03;;;16.05;37.48
56630;BME280;42502;40.732;-74.254;2023-02-22T08:21:38;100655.75;;;15.98;37.44
56630;BME280;42502;40.732;-74.254;2023-02-22T08:23:39;100652.31;;;16.01;37.65
56630;BME280;42502;40.732;-74.254;2023-02-22T08:25:40;100660.81;;;16.05;37.19
56630;BME280;42502;40.732;-74.254;2023-02-22T08:27:41;100657.22;;;16.04;37.60
56630;BME280;42502;40.732;-74.254;2023-02-22T08:29:43;100663.13;;;16.03;37.67
56630;BME280;42502;40.732;-74.254;2023-02-22T08:31:51;100641.13;;;15.92;37.61
56630;BME280;42502;40.732;-74.254;2023-02-22T08:33:56;100649.84;;;15.99;37.38
56630;BME280;42502;40.732;-74.254;2023-02-22T08:35:57;100646.72;;;16.01;37.47
56630;BME280;42502;40.732;-74.254;2023-02-22T08:38:01;100655.09;;;16.01;37.46
56630;BME280;42502;40.732;-74.254;2023-02-22T08:40:02;100649.03;;;15.99;37.30
56630;BME280;42502;40.732;-74.254;2023-02-22T08:42:03;100647.88;;;16.00;37.39
56630;BME280;42502;40.732;-74.254;2023-02-22T08:44:04;100654.59;;;15.99;37.27
56630;BME280;42502;40.732;-74.254;2023-02-22T08:46:05;100660.19;;;15.99;37.29
56630;BME280;42502;40.732;-74.254;2023-02-22T08:48:06;100671.13;;;15.95;37.37
56630;BME280;42502;40.732;-74.254;2023-02-22T08:50:08;100668.84;;;15.97;37.62
56630;BME280;42502;40.732;-74.254;2023-02-22T08:52:09;100666.69;;;15.86;37.46
56630;BME280;42502;40.732;-74.254;2023-02-22T08:54:13;100680.66;;;15.94;37.44
56630;BME280;42502;40.732;-74.254;2023-02-22T08:56:14;100685.06;;;15.95;37.25
56630;BME280;42502;40.732;-74.254;2023-02-22T08:58:15;100686.22;;;15.94;37.32
56630;BME280;42502;40.732;-74.254;2023-02-22T09:00:20;100686.53;;;15.93;37.49
56630;BME280;42502;40.732;-74.254;2023-02-22T09:02:24;100686.53;;;15.93;37.60
56630;BME280;42502;40.732;-74.254;2023-02-22T09:04:25;100698.50;;;15.93;37.40
56630;BME280;42502;40.732;-74.254;2023-02-22T09:06:26;100704.41;;;15.92;37.66
56630;BME280;42502;40.732;-74.254;2023-02-22T09:08:27;100696.50;;;15.85;37.20
56630;BME280;42502;40.732;-74.254;2023-02-22T09:10:31;100713.06;;;15.90;37.22
56630;BME280;42502;40.732;-74.254;2023-02-22T09:12:35;100689.59;;;15.83;37.26
56630;BME280;42502;40.732;-74.254;2023-02-22T09:14:36;100707.81;;;15.89;37.49
56630;BME280;42502;40.732;-74.254;2023-02-22T09:16:37;100697.66;;;15.84;37.20
56630;BME280;42502;40.732;-74.254;2023-02-22T09:18:38;100702.25;;;15.89;37.44
56630;BME280;42502;40.732;-74.254;2023-02-22T09:20:39;100700.59;;;15.88;37.47
56630;BME280;42502;40.732;-74.254;2023-02-22T09:22:44;100715.69;;;15.87;37.23
56630;BME280;42502;40.732;-74.254;2023-02-22T09:24:45;100731.88;;;15.85;37.45
56630;BME280;42502;40.732;-74.254;2023-02-22T09:26:49;100739.25;;;15.80;37.13
56630;BME280;42502;40.732;-74.254;2023-02-22T09:28:53;100731.31;;;15.74;37.23
56630;BME280;42502;40.732;-74.254;2023-02-22T09:30:57;100755.81;;;15.86;37.27
56630;BME280;42502;40.732;-74.254;2023-02-22T09:33:03;100732.53;;;15.81;37.36
56630;BME280;42502;40.732;-74.254;2023-02-22T09:35:08;100714.69;;;15.83;37.41
56630;BME280;42502;40.732;-74.254;2023-02-22T09:37:09;100714.69;;;15.83;37.27
56630;BME280;42502;40.732;-74.254;2023-02-22T09:39:10;100716.66;;;15.82;37.24
56630;BME280;42502;40.732;-74.254;2023-02-22T09:41:25;100738.41;;;15.80;37.38
56630;BME280;42502;40.732;-74.254;2023-02-22T09:43:40;100743.19;;;15.79;37.12
56630;BME280;42502;40.732;-74.254;2023-02-22T09:47:58;100771.34;;;15.78;37.19
56630;BME280;42502;40.732;-74.254;2023-02-22T09:50:10;100773.28;;;15.77;37.33
56630;BME280;42502;40.732;-74.254;2023-02-22T09:52:24;100781.66;;;15.77;37.24
56630;BME280;42502;40.732;-74.254;2023-02-22T09:56:37;100788.34;;;15.76;37.29
56630;BME280;42502;40.732;-74.254;2023-02-22T09:58:47;100762.69;;;15.57;37.31
56630;BME280;42502;40.732;-74.254;2023-02-22T10:00:53;100808.19;;;15.75;37.34
56630;BME280;42502;40.732;-74.254;2023-02-22T10:05:24;100798.31;;;15.69;37.08
56630;BME280;42502;40.732;-74.254;2023-02-22T10:07:35;100828.31;;;15.72;37.37
56630;BME280;42502;40.732;-74.254;2023-02-22T10:09:40;100834.00;;;15.67;37.35
56630;BME280;42502;40.732;-74.254;2023-02-22T10:21:01;100873.81;;;15.67;37.15
56630;BME280;42502;40.732;-74.254;2023-02-22T10:25:58;100907.56;;;15.66;37.12
56630;BME280;42502;40.732;-74.254;2023-02-22T10:28:18;100919.00;;;15.64;37.35
56630;BME280;42502;40.732;-74.254;2023-02-22T10:30:29;100912.72;;;15.58;37.08
56630;BME280;42502;40.732;-74.254;2023-02-22T10:32:40;100905.91;;;15.64;37.03
56630;BME280;42502;40.732;-74.254;2023-02-22T10:34:48;100888.47;;;15.59;37.37
56630;BME280;42502;40.732;-74.254;2023-02-22T10:37:28;100859.63;;;15.55;37.11
56630;BME280;42502;40.732;-74.254;2023-02-22T10:39:35;100862.28;;;15.60;37.15
56630;BME280;42502;40.732;-74.254;2023-02-22T10:41:43;100895.72;;;15.60;37.45
56630;BME280;42502;40.732;-74.254;2023-02-22T10:43:47;100913.53;;;15.59;37.30
56630;BME280;42502;40.732;-74.254;2023-02-22T10:45:50;100921.72;;;15.55;37.29
56630;BME280;42502;40.732;-74.254;2023-02-22T10:47:55;100940.91;;;15.57;37.26
56630;BME280;42502;40.732;-74.254;2023-02-22T10:49:58;100925.84;;;15.58;37.06
56630;BME280;42502;40.732;-74.254;2023-02-22T10:52:01;100904.81;;;15.52;37.11
56630;BME280;42502;40.732;-74.254;2023-02-22T10:56:20;100907.47;;;15.57;37.02
56630;BME280;42502;40.732;-74.254;2023-02-22T10:58:21;100905.00;;;15.55;37.02
56630;BME280;42502;40.732;-74.254;2023-02-22T11:00:31;100903.34;;;15.54;37.27
56630;BME280;42502;40.732;-74.254;2023-02-22T11:02:34;100891.09;;;15.55;37.19
56630;BME280;42502;40.732;-74.254;2023-02-22T11:04:48;100908.09;;;15.54;37.28
56630;BME280;42502;40.732;-74.254;2023-02-22T11:07:17;100918.44;;;15.53;37.05
56630;BME280;42502;40.732;-74.254;2023-02-22T11:09:20;100909.06;;;15.49;37.14
56630;BME280;42502;40.732;-74.254;2023-02-22T11:11:25;100905.94;;;15.51;36.90
56630;BME280;42502;40.732;-74.254;2023-02-22T11:13:31;100920.50;;;15.48;37.22
56630;BME280;42502;40.732;-74.254;2023-02-22T11:15:33;100925.53;;;15.45;37.24
56630;BME280;42502;40.732;-74.254;2023-02-22T11:17:35;100930.19;;;15.50;37.19
56630;BME280;42502;40.732;-74.254;2023-02-22T11:19:37;100907.13;;;15.36;37.04
56630;BME280;42502;40.732;-74.254;2023-02-22T11:21:47;100898.38;;;15.28;37.40
56630;BME280;42502;40.732;-74.254;2023-02-22T11:24:00;100938.66;;;15.45;37.32
56630;BME280;42502;40.732;-74.254;2023-02-22T11:26:06;100949.78;;;15.45;36.94